< < Back
Terminal Aerodrome Forecast


Current Version              Previous Versions:   1  2  3  4  5  6  7  8  9  

Terminal Aerodrome Forecast

529
FTUS42 KCHS 291957 AAC
TAFCHS
TAF AMD
KCHS 291957Z 2920/3018 23008G15KT P6SM SCT060 BKN250
     FM300200 VRB05KT P6SM SCT250=

Latest METAR

377
SAUS80 KWBC 301600
MTRCHS
METAR KCHS 301556Z 20007KT 10SM FEW040 BKN250 31/21 A3003 RMK AO2 SLP167
T03110206


USA.gov is the U.S. government's official web portal to all federal, state and local government web resources and services.